Latest Weather Observations for Flinders Island Airport

IDT60801

Issued at 10:51 pm EDT Thursday 17 January 2019 (issued every 10 minutes, with the page automatically refreshed every 10 minutes)

About weather observations | Map of weather stations | Latest weather observations for TAS | Other Formats
Station Details ID: 099005 Name: FLINDERS ISLAND AIRPORT Lat: -40.09 Lon: 148.00 Height: 9.0 m
Data from the previous 72 hours. | See also: Recent months at Flinders Island Airport
Date/Time
EDT
Temp
°C
App
Temp
°C
Dew
Point
°C
Rel
Hum
%
Delta-T
°C
Wind Press
QNH
hPa
Press
MSL
hPa
Rain since
9am
mm
Dir  Spd
km/h
Gust
km/h
Spd
kts
Gust
kts
17/10:30pm 20.6 20.9 19.6 94 0.6 ENE 17 19 9 10 1007.1 1007.1 0.0
17/10:00pm 20.6 21.5 19.3 92 0.8 ENE 13 15 7 8 1007.9 1007.9 0.0
17/09:30pm 20.5 21.4 17.5 83 1.8 ENE 9 11 5 6 1008.0 1008.0 0.0
17/09:00pm 21.6 22.9 17.6 78 2.5 E 7 9 4 5 1008.1 1008.1 0.0
17/08:30pm 22.5 23.2 15.6 65 4.1 ENE 6 9 3 5 1007.6 1007.6 0.0
17/08:00pm 23.3 23.1 16.6 66 4.1 NE 13 19 7 10 1007.1 1007.1 0.0
17/07:30pm 23.8 24.1 18.0 70 3.6 NE 13 17 7 9 1006.6 1006.6 0.0
17/07:00pm 23.2 23.0 18.5 75 3.0 NE 17 22 9 12 1006.9 1006.9 0.0
17/06:30pm 24.6 23.1 17.8 66 4.3 NNE 22 28 12 15 1007.2 1007.2 0.0
17/06:00pm 24.5 22.8 18.2 68 4.0 NNE 24 30 13 16 1006.8 1006.8 0.0
17/05:30pm 24.7 23.8 18.2 67 4.1 NE 20 26 11 14 1006.9 1006.9 0.0
17/05:00pm 25.9 24.0 16.7 57 5.7 NE 22 28 12 15 1006.7 1006.7 0.0
17/04:30pm 27.7 25.4 14.0 43 8.2 ENE 19 26 10 14 1006.7 1006.7 0.0
17/04:00pm 27.7 25.3 15.4 47 7.5 ENE 22 32 12 17 1007.1 1007.1 0.0
17/03:30pm 26.7 23.7 14.8 48 7.2 ENE 24 32 13 17 1007.3 1007.3 0.0
17/03:00pm 27.0 25.0 15.4 49 7.1 ENE 20 32 11 17 1007.5 1007.5 0.0
17/02:30pm 25.4 23.0 15.4 54 6.0 E 22 32 12 17 1007.6 1007.6 0.0
17/02:00pm 26.0 24.0 16.5 55 5.9 E 22 33 12 18 1008.1 1008.1 0.0
17/01:30pm 26.3 23.9 16.5 54 6.0 ENE 24 33 13 18 1008.0 1008.0 0.0
17/01:00pm 26.4 24.6 18.8 63 4.9 ENE 26 33 14 18 1008.2 1008.2 0.0
17/12:30pm 25.7 25.5 18.6 65 4.5 ESE 17 30 9 16 1008.2 1008.2 0.0
17/12:00pm 25.1 23.9 18.3 66 4.3 E 22 30 12 16 1008.4 1008.4 0.0
17/11:30am 23.6 22.7 17.8 70 3.6 E 19 28 10 15 1008.6 1008.6 0.0
17/11:00am 22.8 22.4 18.8 78 2.5 E 19 28 10 15 1008.8 1008.8 0.0
17/10:30am 23.2 23.0 17.7 71 3.4 E 15 30 8 16 1009.1 1009.1 0.0
17/10:00am 23.0 22.2 17.9 73 3.2 E 19 30 10 16 1008.9 1008.9 0.0
17/09:30am 21.1 21.7 19.4 90 1.1 E 15 20 8 11 1009.0 1009.0 0.0
17/09:00am 20.2 21.5 19.4 95 0.5 ESE 11 19 6 10 1009.5 1009.5 0.0
17/08:30am 19.5 21.3 18.3 93 0.7 SE 6 9 3 5 1010.0 1010.0 0.0
17/08:00am 19.7 22.1 18.9 95 0.5 ENE 4 11 2 6 1009.1 1009.1 0.0
17/07:30am 18.9 21.4 18.2 96 0.4 ESE 2 7 1 4 1008.8 1008.8 0.0
17/07:00am 18.4 20.0 17.9 97 0.3 NNE 6 13 3 7 1008.0 1008.0 0.0
17/06:30am 17.8 18.2 17.3 97 0.3 E 11 20 6 11 1008.3 1008.3 0.0
17/06:29am 17.8 18.2 17.3 97 0.3 E 11 20 6 11 1008.3 1008.3 0.0
17/06:00am 18.2 19.7 18.0 99 0.1 S 7 15 4 8 1010.3 1010.3 0.0
17/05:30am 17.3 19.4 17.1 99 0.1 SW 2 9 1 5 1008.6 1008.6 0.0
17/05:00am 16.9 16.7 16.7 99 0.1 ENE 13 17 7 9 1007.5 1007.5 0.0
17/04:30am 17.3 18.4 17.1 99 0.1 E 7 9 4 5 1007.7 1007.7 0.0
17/04:00am 16.4 16.7 16.1 98 0.2 ENE 9 15 5 8 1008.3 1008.3 0.0
17/03:30am 18.0 20.7 17.7 98 0.2 CALM 0 0 0 0 1008.8 1008.8 0.0
17/03:00am 18.5 21.3 17.9 96 0.4 CALM 0 0 0 0 1009.6 1009.6 0.0
17/02:30am 19.3 21.5 18.3 94 0.6 ENE 4 7 2 4 1009.6 1009.6 0.0
17/02:00am 20.0 22.7 18.7 92 0.8 NE 2 11 1 6 1010.6 1010.6 0.0
17/01:30am 20.3 21.5 19.1 93 0.8 N 11 19 6 10 1010.1 1010.1 0.0
17/01:00am 20.2 19.7 19.2 94 0.6 NNE 20 32 11 17 1010.2 1010.2 0.0
17/12:30am 20.3 18.4 19.3 94 0.6 NE 28 37 15 20 1010.5 1010.5 0.0
17/12:00am 20.3 18.3 19.1 93 0.8 NE 28 37 15 20 1011.1 1011.1 0.0
 
Date/Time
EDT
Temp
°C
App
Temp
°C
Dew
Point
°C
Rel
Hum
%
Delta-T
°C
Wind Press
QNH
hPa
Press
MSL
hPa
Rain since
9am
mm
Dir  Spd
km/h
Gust
km/h
Spd
kts
Gust
kts
16/11:30pm 19.9 17.7 18.7 93 0.7 NE 28 35 15 19 1010.6 1010.6 0.0
16/11:00pm 19.9 17.2 18.4 91 0.9 NE 30 39 16 21 1010.7 1010.7 0.0
16/10:30pm 20.0 16.2 18.1 89 1.2 NE 35 43 19 23 1010.9 1010.9 0.0
16/10:00pm 20.0 18.3 18.0 88 1.2 ENE 24 35 13 19 1010.9 1010.9 0.0
16/09:30pm 20.0 19.5 17.8 87 1.4 ENE 17 22 9 12 1011.7 1011.7 0.0
16/09:00pm 20.4 20.7 17.8 85 1.6 NNE 13 19 7 10 1013.6 1013.6 0.0
16/08:46pm 20.4 19.8 17.6 84 1.7 NNE 17 19 9 10 1013.4 1013.4 0.0
16/08:30pm 20.8 20.3 17.8 83 1.9 NNE 17 24 9 13 1012.7 1012.7 0.0
16/08:00pm 21.0 23.0 17.8 82 2.0 WNW 4 9 2 5 1012.7 1012.7 0.0
16/07:58pm 20.9 23.2 17.7 82 2.0 WNW 2 9 1 5 1012.6 1012.6 0.0
16/07:30pm 20.9 22.3 17.7 82 2.0 NW 7 11 4 6 1012.1 1012.1 0.0
16/07:00pm 21.1 22.4 17.5 80 2.2 WNW 7 11 4 6 1011.7 1011.7 0.0
16/06:30pm 21.0 20.2 17.2 79 2.3 WSW 17 20 9 11 1011.9 1011.9 0.0
16/06:00pm 22.0 23.0 17.8 77 2.6 WSW 9 13 5 7 1011.4 1011.4 0.0
16/05:30pm 21.1 21.4 17.1 78 2.4 SSW 11 15 6 8 1010.9 1010.9 0.0
16/05:00pm 21.5 21.6 17.5 78 2.5 SW 13 19 7 10 1011.3 1011.3 0.0
16/04:30pm 22.1 21.9 17.5 75 2.8 WSW 15 19 8 10 1011.4 1011.4 0.0
16/04:00pm 23.3 22.5 18.4 74 3.1 WSW 20 28 11 15 1012.1 1012.1 0.0
16/03:30pm 22.2 22.4 17.6 75 2.8 WSW 13 19 7 10 1011.4 1011.4 0.0
16/03:00pm 23.0 23.1 18.3 75 3.0 WSW 15 19 8 10 1011.1 1011.1 0.0
16/02:30pm 23.1 22.9 18.4 75 3.0 WSW 17 20 9 11 1011.2 1011.2 0.0
16/02:00pm 23.2 22.8 18.1 73 3.2 WSW 17 20 9 11 1010.7 1010.7 0.0
16/01:30pm 23.3 23.1 18.4 74 3.1 WSW 17 20 9 11 1010.7 1010.7 0.0
16/01:00pm 22.9 21.9 17.6 72 3.3 WSW 19 24 10 13 1010.8 1010.8 0.0
16/12:30pm 22.8 22.6 17.7 73 3.2 WSW 15 17 8 9 1010.6 1010.6 0.0
16/12:00pm 22.2 21.7 16.9 72 3.2 WSW 15 19 8 10 1010.7 1010.7 0.0
16/11:30am 22.1 22.2 17.5 75 2.8 WSW 13 17 7 9 1010.6 1010.6 0.0
16/11:00am 21.7 21.7 17.3 76 2.7 SW 13 17 7 9 1010.1 1010.1 0.0
16/10:30am 21.7 21.8 17.5 77 2.6 SW 13 17 7 9 1010.1 1010.1 0.0
16/10:00am 21.2 22.2 17.8 81 2.1 SW 9 11 5 6 1010.0 1010.0 0.0
16/09:30am 20.7 21.6 18.3 86 1.5 WSW 11 13 6 7 1010.2 1010.2 0.0
16/09:00am 19.7 21.0 18.4 92 0.8 WSW 9 13 5 7 1010.5 1010.5 0.0
16/08:30am 18.3 19.8 18.1 99 0.1 SE 7 11 4 6 1010.3 1010.3 0.0
16/08:00am 18.0 20.7 17.8 99 0.1 CALM 0 7 0 4 1010.1 1010.1 0.0
16/07:30am 17.4 19.5 17.2 99 0.1 E 2 7 1 4 1009.5 1009.5 0.0
16/07:00am 16.5 16.9 16.3 99 0.1 NE 9 11 5 6 1008.8 1008.8 0.0
16/06:41am 15.1 15.0 14.9 99 0.1 ENE 9 13 5 7 1008.5 1008.5 0.0
16/06:30am 14.0 14.1 13.8 99 0.1 ENE 6 11 3 6 1008.4 1008.4 0.0
16/06:21am 13.2 12.8 13.0 99 0.1 ENE 7 9 4 5 1008.3 1008.3 0.0
16/06:00am 13.6 14.7 13.4 99 0.1 CALM 0 0 0 0 1008.1 1008.1 0.0
16/05:56am 13.2 14.1 13.0 99 0.1 CALM 0 0 0 0 1008.1 1008.1 0.0
16/05:52am 13.3 14.3 13.1 99 0.1 CALM 0 0 0 0 1008.1 1008.1 0.0
16/05:32am 14.1 15.3 13.9 99 0.1 CALM 0 0 0 0 1008.1 1008.1 0.0
16/05:30am 14.1 15.3 13.9 99 0.1 CALM 0 0 0 0 1008.1 1008.1 0.0
16/05:00am 15.9 17.8 15.7 99 0.1 CALM 0 0 0 0 1008.0 1008.0 0.0
16/04:30am 17.0 18.0 16.8 99 0.1 SW 7 9 4 5 1008.0 1008.0 0.0
16/04:25am 17.1 18.1 16.9 99 0.1 SW 7 11 4 6 1008.1 1008.1 0.0
16/04:00am 17.6 18.1 17.4 99 0.1 SW 11 17 6 9 1008.2 1008.2 0.0
16/03:30am 17.8 17.6 17.6 99 0.1 WSW 15 19 8 10 1008.3 1008.3 0.0
16/03:00am 18.0 18.3 17.8 99 0.1 WSW 13 17 7 9 1008.2 1008.2 0.0
16/02:30am 18.3 19.1 18.1 99 0.1 WSW 11 15 6 8 1008.3 1008.3 0.0
16/02:00am 18.6 18.7 18.4 99 0.1 WSW 15 19 8 10 1008.6 1008.6 0.0
16/01:30am 18.7 19.6 18.5 99 0.1 WSW 11 17 6 9 1008.8 1008.8 0.0
16/01:00am 18.8 18.6 18.6 99 0.1 WSW 17 22 9 12 1009.1 1009.1 0.0
16/12:30am 19.0 18.4 18.8 99 0.1 W 20 26 11 14 1009.2 1009.2 0.0
16/12:00am 19.2 18.7 19.0 99 0.1 WNW 20 28 11 15 1008.9 1008.9 0.0
 
Date/Time
EDT
Temp
°C
App
Temp
°C
Dew
Point
°C
Rel
Hum
%
Delta-T
°C
Wind Press
QNH
hPa
Press
MSL
hPa
Rain since
9am
mm
Dir  Spd
km/h
Gust
km/h
Spd
kts
Gust
kts
15/11:54pm 19.1 18.5 18.9 99 0.1 WNW 20 28 11 15 1008.8 1008.8 0.0
15/11:30pm 18.9 20.9 18.7 99 0.1 NW 6 7 3 4 1008.0 1008.0 0.0
15/11:00pm 19.2 21.3 19.0 99 0.1 N 6 11 3 6 1007.8 1007.8 0.0
15/10:53pm 19.3 20.9 19.1 99 0.1 NNW 9 13 5 7 1007.8 1007.8 0.0
15/10:43pm 19.5 20.8 19.3 99 0.1 NW 11 15 6 8 1008.2 1008.2 0.0
15/10:38pm 19.7 21.1 19.5 99 0.1 WNW 11 15 6 8 1008.4 1008.4 0.0
15/10:30pm 19.6 21.3 19.4 99 0.1 WNW 9 13 5 7 1008.4 1008.4 0.0
15/10:23pm 19.5 21.2 19.3 99 0.1 NW 9 11 5 6 1008.3 1008.3 0.0
15/10:14pm 19.6 21.3 19.4 99 0.1 NW 9 11 5 6 1008.4 1008.4 0.0
15/10:09pm 19.4 21.0 19.2 99 0.1 NNW 9 9 5 5 1008.2 1008.2 0.0
15/10:00pm 19.7 21.5 19.5 99 0.1 NNW 9 9 5 5 1007.9 1007.9 0.0
15/09:32pm 20.3 21.7 19.6 96 0.4 NNW 11 15 6 8 1008.4 1008.4 0.0
15/09:30pm 20.4 21.8 19.6 95 0.5 NNW 11 13 6 7 1008.5 1008.5 0.0
15/09:00pm 21.5 23.8 19.8 90 1.1 WNW 7 13 4 7 1008.0 1008.0 0.0
15/08:30pm 22.2 23.4 19.9 87 1.5 NW 13 19 7 10 1008.3 1008.3 0.0
15/08:00pm 23.1 25.5 20.8 87 1.5 W 9 15 5 8 1007.8 1007.8 0.0
15/07:30pm 23.0 25.0 20.7 87 1.5 NW 11 15 6 8 1007.6 1007.6 0.0
15/07:00pm 23.8 25.0 20.7 83 2.0 WSW 15 17 8 9 1007.8 1007.8 0.0
15/06:30pm 25.5 27.7 21.2 77 2.8 WSW 11 13 6 7 1007.8 1007.8 0.0
15/06:00pm 25.4 28.1 21.3 78 2.7 SW 9 13 5 7 1007.9 1007.9 0.0
15/05:30pm 24.7 26.9 21.2 81 2.3 WSW 11 13 6 7 1008.0 1008.0 0.0
15/05:00pm 24.7 25.9 21.4 82 2.2 WSW 17 22 9 12 1008.0 1008.0 0.0
15/04:30pm 25.1 27.3 21.8 82 2.2 WSW 13 19 7 10 1007.7 1007.7 0.0
15/04:00pm 25.0 26.8 21.1 79 2.6 WSW 13 17 7 9 1007.6 1007.6 0.0
15/03:30pm 26.3 28.5 21.1 73 3.4 SW 11 15 6 8 1007.7 1007.7 0.0
15/03:00pm 26.0 27.3 21.7 77 2.9 SSW 17 22 9 12 1008.1 1008.1 0.0
15/02:30pm 26.6 28.5 21.4 73 3.5 SSW 13 17 7 9 1008.2 1008.2 0.0
15/02:00pm 24.8 26.2 21.1 80 2.4 SSW 15 17 8 9 1008.5 1008.5 0.0
15/01:30pm 23.7 24.6 20.8 84 1.9 SSW 17 24 9 13 1008.7 1008.7 0.0
15/01:00pm 23.6 22.9 20.3 82 2.1 SSW 24 30 13 16 1009.0 1009.0 0.0
15/12:30pm 25.1 25.7 21.0 78 2.7 SSW 19 20 10 11 1009.0 1009.0 0.0
15/12:00pm 25.9 26.9 21.1 75 3.2 SSW 17 20 9 11 1009.0 1009.0 0.0
15/11:30am 24.9 25.2 20.4 76 2.9 SSW 19 22 10 12 1009.3 1009.3 0.0
15/11:00am 27.0 28.6 20.8 69 4.1 ENE 13 19 7 10 1009.2 1009.2 0.0
15/10:30am 26.3 27.7 21.9 77 2.9 ENE 17 20 9 11 1009.5 1009.5 0.0
15/10:00am 24.3 24.9 21.4 84 1.9 ENE 20 26 11 14 1009.8 1009.8 0.0
15/09:30am 23.9 24.9 21.8 88 1.4 ENE 19 24 10 13 1009.9 1009.9 0.0
15/09:00am 23.3 23.3 21.7 91 1.1 ENE 24 30 13 16 1009.5 1009.5 0.0
15/08:30am 22.7 23.9 21.5 93 0.8 ENE 17 22 9 12 1009.4 1009.4 0.0
15/08:00am 22.7 23.2 22.0 96 0.5 NNE 22 30 12 16 1009.1 1009.1 0.0
15/07:30am 21.4 22.1 21.2 99 0.1 ENE 19 24 10 13 1009.1 1009.1 0.0
15/07:02am 21.0 20.5 20.8 99 0.1 ENE 24 33 13 18 1009.1 1009.1 0.0
15/07:00am 21.0 20.2 20.8 99 0.1 NE 26 35 14 19 1009.1 1009.1 0.0
15/06:30am 20.9 21.2 20.7 99 0.1 NE 20 30 11 16 1009.1 1009.1 0.0
15/06:00am 20.8 22.7 20.6 99 0.1 ENE 11 15 6 8 1009.7 1009.7 0.0
15/05:30am 20.5 21.9 20.3 99 0.1 ENE 13 15 7 8 1009.5 1009.5 0.0
15/05:00am 20.6 22.4 20.4 99 0.1 E 11 15 6 8 1009.7 1009.7 0.0
15/04:30am 20.9 22.5 20.7 99 0.1 E 13 17 7 9 1009.7 1009.7 0.0
15/04:00am 20.9 21.7 20.7 99 0.1 ENE 17 20 9 11 1009.5 1009.5 0.0
15/03:30am 21.2 22.2 21.0 99 0.1 E 17 20 9 11 1010.2 1010.2 0.0
15/03:00am 21.4 22.9 21.2 99 0.1 E 15 20 8 11 1010.9 1010.9 0.0
15/02:30am 21.5 23.8 21.3 99 0.1 ESE 11 15 6 8 1011.5 1011.5 0.0
15/02:00am 21.6 23.9 21.4 99 0.1 E 11 17 6 9 1011.4 1011.4 0.0
15/01:30am 21.6 24.3 21.4 99 0.1 ESE 9 15 5 8 1011.6 1011.6 0.0
15/01:00am 21.6 23.9 21.3 98 0.2 ESE 11 13 6 7 1011.6 1011.6 0.0
15/12:30am 21.5 23.8 21.3 99 0.1 ESE 11 15 6 8 1012.0 1012.0 0.0
15/12:00am 21.5 23.7 21.2 98 0.2 E 11 17 6 9 1012.3 1012.3 0.0
 
Date/Time
EDT
Temp
°C
App
Temp
°C
Dew
Point
°C
Rel
Hum
%
Delta-T
°C
Wind Press
QNH
hPa
Press
MSL
hPa
Rain since
9am
mm
Dir  Spd
km/h
Gust
km/h
Spd
kts
Gust
kts
14/11:30pm 21.5 23.3 21.2 98 0.2 E 13 19 7 10 1012.5 1012.5 0.0
14/11:00pm 21.4 23.2 21.1 98 0.2 E 13 26 7 14 1012.4 1012.4 0.0

Other Formats:

Comma delimited format used in spreadsheet applications
http://www.bom.gov.au/fwo/IDT60801/IDT60801.94980.axf

JavaScript Object Notation format (JSON) in row-major order
http://www.bom.gov.au/fwo/IDT60801/IDT60801.94980.json